Terminal Aerodrome Forecast
Issued by NWS

Home | Current Version | Previous Version | Text Only | Print | Product List | Glossary On
Versions: 1 2 3 4 5 6 7 8 9 10 11 12 13 14 15 16 17 18 19 20 21 22
000
FTUS43 KABR 040500
TAFPIR
TAF
KPIR 040533Z 0406/0506 26005KT P6SM SKC
      TEMPO 0409/0413 BKN050
     FM041600 32013G22KT P6SM SCT040
     FM050100 VRB03KT P6SM SKC=

USA.gov is the U.S. government's official web portal to all federal, state and local government web resources and services.